sensor_id;sensor_type;location;lat;lon;timestamp;temperature;humidity
37974;DHT22;23796;51.458;7.000;2023-10-09T00:01:07;15.30;99.90
37974;DHT22;23796;51.458;7.000;2023-10-09T00:03:45;15.20;99.90
37974;DHT22;23796;51.458;7.000;2023-10-09T00:06:15;15.20;99.90
37974;DHT22;23796;51.458;7.000;2023-10-09T00:08:42;15.20;99.90
37974;DHT22;23796;51.458;7.000;2023-10-09T00:11:15;15.20;99.90
37974;DHT22;23796;51.458;7.000;2023-10-09T00:13:47;15.30;99.90
37974;DHT22;23796;51.458;7.000;2023-10-09T00:16:24;15.20;99.90
37974;DHT22;23796;51.458;7.000;2023-10-09T00:19:05;15.30;99.90
37974;DHT22;23796;51.458;7.000;2023-10-09T00:21:46;15.40;99.90
37974;DHT22;23796;51.458;7.000;2023-10-09T00:24:12;15.50;99.90
37974;DHT22;23796;51.458;7.000;2023-10-09T00:26:47;15.50;99.90
37974;DHT22;23796;51.458;7.000;2023-10-09T00:29:16;15.60;99.90
37974;DHT22;23796;51.458;7.000;2023-10-09T00:31:53;15.60;99.90
37974;DHT22;23796;51.458;7.000;2023-10-09T00:34:38;15.60;99.90
37974;DHT22;23796;51.458;7.000;2023-10-09T00:37:09;15.60;99.90
37974;DHT22;23796;51.458;7.000;2023-10-09T00:39:50;15.70;99.90
37974;DHT22;23796;51.458;7.000;2023-10-09T00:42:23;15.80;99.90
37974;DHT22;23796;51.458;7.000;2023-10-09T00:45:02;15.90;99.90
37974;DHT22;23796;51.458;7.000;2023-10-09T00:47:31;15.90;99.90
37974;DHT22;23796;51.458;7.000;2023-10-09T00:50:05;15.90;99.90
37974;DHT22;23796;51.458;7.000;2023-10-09T00:52:42;16.00;99.90
37974;DHT22;23796;51.458;7.000;2023-10-09T00:55:14;16.00;99.90
37974;DHT22;23796;51.458;7.000;2023-10-09T00:57:52;16.00;99.90
37974;DHT22;23796;51.458;7.000;2023-10-09T01:00:26;16.00;99.90
37974;DHT22;23796;51.458;7.000;2023-10-09T01:03:07;16.00;99.90
37974;DHT22;23796;51.458;7.000;2023-10-09T01:05:54;16.00;99.90
37974;DHT22;23796;51.458;7.000;2023-10-09T01:08:24;15.90;99.90
37974;DHT22;23796;51.458;7.000;2023-10-09T01:10:58;15.90;99.90
37974;DHT22;23796;51.458;7.000;2023-10-09T01:13:46;15.90;99.90
37974;DHT22;23796;51.458;7.000;2023-10-09T01:16:12;15.90;99.90
37974;DHT22;23796;51.458;7.000;2023-10-09T01:18:41;15.90;99.90
37974;DHT22;23796;51.458;7.000;2023-10-09T01:21:07;15.90;99.90
37974;DHT22;23796;51.458;7.000;2023-10-09T01:23:33;15.90;99.90
37974;DHT22;23796;51.458;7.000;2023-10-09T01:25:59;16.00;99.90
37974;DHT22;23796;51.458;7.000;2023-10-09T01:28:24;16.00;99.90
37974;DHT22;23796;51.458;7.000;2023-10-09T01:30:51;16.00;99.90
37974;DHT22;23796;51.458;7.000;2023-10-09T01:33:17;16.00;99.90
37974;DHT22;23796;51.458;7.000;2023-10-09T01:35:49;16.00;99.90
37974;DHT22;23796;51.458;7.000;2023-10-09T01:38:19;16.00;99.90
37974;DHT22;23796;51.458;7.000;2023-10-09T01:40:55;15.90;99.90
37974;DHT22;23796;51.458;7.000;2023-10-09T01:43:29;15.90;99.90
37974;DHT22;23796;51.458;7.000;2023-10-09T01:45:59;15.90;99.90
37974;DHT22;23796;51.458;7.000;2023-10-09T01:48:29;15.80;99.90
37974;DHT22;23796;51.458;7.000;2023-10-09T01:50:58;15.70;99.90
37974;DHT22;23796;51.458;7.000;2023-10-09T01:53:26;15.70;99.90
37974;DHT22;23796;51.458;7.000;2023-10-09T01:55:55;15.70;99.90
37974;DHT22;23796;51.458;7.000;2023-10-09T01:58:21;15.70;99.90
37974;DHT22;23796;51.458;7.000;2023-10-09T02:00:47;15.70;99.90
37974;DHT22;23796;51.458;7.000;2023-10-09T02:03:37;15.70;99.90
37974;DHT22;23796;51.458;7.000;2023-10-09T02:06:03;15.70;99.90
37974;DHT22;23796;51.458;7.000;2023-10-09T02:08:31;15.70;99.90
37974;DHT22;23796;51.458;7.000;2023-10-09T02:11:00;15.70;99.90
37974;DHT22;23796;51.458;7.000;2023-10-09T02:13:28;15.70;99.90
37974;DHT22;23796;51.458;7.000;2023-10-09T02:16:00;15.70;99.90
37974;DHT22;23796;51.458;7.000;2023-10-09T02:18:41;15.70;99.90
37974;DHT22;23796;51.458;7.000;2023-10-09T02:21:27;15.70;99.90
37974;DHT22;23796;51.458;7.000;2023-10-09T02:24:06;15.70;99.90
37974;DHT22;23796;51.458;7.000;2023-10-09T02:26:35;15.70;99.90
37974;DHT22;23796;51.458;7.000;2023-10-09T02:29:21;15.80;99.90
37974;DHT22;23796;51.458;7.000;2023-10-09T02:31:49;15.90;99.90
37974;DHT22;23796;51.458;7.000;2023-10-09T02:34:20;15.90;99.90
37974;DHT22;23796;51.458;7.000;2023-10-09T02:36:54;15.90;99.90
37974;DHT22;23796;51.458;7.000;2023-10-09T02:39:31;15.90;99.90
37974;DHT22;23796;51.458;7.000;2023-10-09T02:42:02;16.00;99.90
37974;DHT22;23796;51.458;7.000;2023-10-09T02:44:40;16.00;99.90
37974;DHT22;23796;51.458;7.000;2023-10-09T02:47:12;16.00;99.90
37974;DHT22;23796;51.458;7.000;2023-10-09T02:49:48;16.10;99.90
37974;DHT22;23796;51.458;7.000;2023-10-09T02:52:14;16.10;99.90
37974;DHT22;23796;51.458;7.000;2023-10-09T02:54:44;16.10;99.90
37974;DHT22;23796;51.458;7.000;2023-10-09T02:57:14;16.20;99.90
37974;DHT22;23796;51.458;7.000;2023-10-09T02:59:53;16.10;99.90
37974;DHT22;23796;51.458;7.000;2023-10-09T03:02:21;16.10;99.90
37974;DHT22;23796;51.458;7.000;2023-10-09T03:04:49;16.20;99.90
37974;DHT22;23796;51.458;7.000;2023-10-09T03:07:15;16.20;99.90
37974;DHT22;23796;51.458;7.000;2023-10-09T03:09:43;16.20;99.90
37974;DHT22;23796;51.458;7.000;2023-10-09T03:12:08;16.30;99.90
37974;DHT22;23796;51.458;7.000;2023-10-09T03:14:38;16.30;99.90
37974;DHT22;23796;51.458;7.000;2023-10-09T03:17:04;16.30;99.90
37974;DHT22;23796;51.458;7.000;2023-10-09T03:19:32;16.30;99.90
37974;DHT22;23796;51.458;7.000;2023-10-09T03:22:03;16.30;99.90
37974;DHT22;23796;51.458;7.000;2023-10-09T03:24:29;16.30;99.90
37974;DHT22;23796;51.458;7.000;2023-10-09T03:26:56;16.30;99.90
37974;DHT22;23796;51.458;7.000;2023-10-09T03:29:23;16.30;99.90
37974;DHT22;23796;51.458;7.000;2023-10-09T03:31:51;16.40;99.90
37974;DHT22;23796;51.458;7.000;2023-10-09T03:34:20;16.40;99.90
37974;DHT22;23796;51.458;7.000;2023-10-09T03:36:49;16.40;99.90
37974;DHT22;23796;51.458;7.000;2023-10-09T03:39:25;16.40;99.90
37974;DHT22;23796;51.458;7.000;2023-10-09T03:42:09;16.40;99.90
37974;DHT22;23796;51.458;7.000;2023-10-09T03:44:45;16.40;99.90
37974;DHT22;23796;51.458;7.000;2023-10-09T03:47:15;16.40;99.80
37974;DHT22;23796;51.458;7.000;2023-10-09T03:49:44;16.40;99.60
37974;DHT22;23796;51.458;7.000;2023-10-09T03:52:10;16.40;99.50
37974;DHT22;23796;51.458;7.000;2023-10-09T03:54:37;16.40;99.40
37974;DHT22;23796;51.458;7.000;2023-10-09T03:57:03;16.40;99.50
37974;DHT22;23796;51.458;7.000;2023-10-09T03:59:29;16.40;99.60
37974;DHT22;23796;51.458;7.000;2023-10-09T04:01:57;16.40;99.60
37974;DHT22;23796;51.458;7.000;2023-10-09T04:04:24;16.40;99.50
37974;DHT22;23796;51.458;7.000;2023-10-09T04:06:51;16.40;99.50
37974;DHT22;23796;51.458;7.000;2023-10-09T04:09:19;16.40;99.40
37974;DHT22;23796;51.458;7.000;2023-10-09T04:11:49;16.40;99.50
37974;DHT22;23796;51.458;7.000;2023-10-09T04:14:36;16.40;99.40
37974;DHT22;23796;51.458;7.000;2023-10-09T04:17:14;16.40;99.40
37974;DHT22;23796;51.458;7.000;2023-10-09T04:19:49;16.40;99.40
37974;DHT22;23796;51.458;7.000;2023-10-09T04:22:39;16.40;99.30
37974;DHT22;23796;51.458;7.000;2023-10-09T04:25:08;16.40;99.20
37974;DHT22;23796;51.458;7.000;2023-10-09T04:27:43;16.40;99.20
37974;DHT22;23796;51.458;7.000;2023-10-09T04:30:10;16.40;99.30
37974;DHT22;23796;51.458;7.000;2023-10-09T04:32:41;16.40;99.40
37974;DHT22;23796;51.458;7.000;2023-10-09T04:37:42;16.40;99.40
37974;DHT22;23796;51.458;7.000;2023-10-09T04:40:10;16.40;99.50
37974;DHT22;23796;51.458;7.000;2023-10-09T04:42:58;16.40;99.40
37974;DHT22;23796;51.458;7.000;2023-10-09T04:45:24;16.40;99.40
37974;DHT22;23796;51.458;7.000;2023-10-09T04:48:08;16.40;99.50
37974;DHT22;23796;51.458;7.000;2023-10-09T04:50:35;16.40;99.50
37974;DHT22;23796;51.458;7.000;2023-10-09T04:53:01;16.40;99.50
37974;DHT22;23796;51.458;7.000;2023-10-09T04:55:42;16.40;99.60
37974;DHT22;23796;51.458;7.000;2023-10-09T04:58:22;16.30;99.70
37974;DHT22;23796;51.458;7.000;2023-10-09T05:00:54;16.40;99.60
37974;DHT22;23796;51.458;7.000;2023-10-09T05:03:22;16.40;99.60
37974;DHT22;23796;51.458;7.000;2023-10-09T05:06:11;16.40;99.50
37974;DHT22;23796;51.458;7.000;2023-10-09T05:08:47;16.40;99.40
37974;DHT22;23796;51.458;7.000;2023-10-09T05:11:15;16.50;99.30
37974;DHT22;23796;51.458;7.000;2023-10-09T05:14:00;16.50;99.20
37974;DHT22;23796;51.458;7.000;2023-10-09T05:16:38;16.50;99.20
37974;DHT22;23796;51.458;7.000;2023-10-09T05:19:22;16.50;99.20
37974;DHT22;23796;51.458;7.000;2023-10-09T05:22:23;16.50;99.10
37974;DHT22;23796;51.458;7.000;2023-10-09T05:24:58;16.50;99.00
37974;DHT22;23796;51.458;7.000;2023-10-09T05:27:24;16.50;99.10
37974;DHT22;23796;51.458;7.000;2023-10-09T05:30:10;16.50;99.10
37974;DHT22;23796;51.458;7.000;2023-10-09T05:32:53;16.50;99.10
37974;DHT22;23796;51.458;7.000;2023-10-09T05:35:23;16.60;99.10
37974;DHT22;23796;51.458;7.000;2023-10-09T05:38:08;16.50;99.20
37974;DHT22;23796;51.458;7.000;2023-10-09T05:40:49;16.50;99.20
37974;DHT22;23796;51.458;7.000;2023-10-09T05:43:20;16.60;99.20
37974;DHT22;23796;51.458;7.000;2023-10-09T05:46:04;16.60;99.10
37974;DHT22;23796;51.458;7.000;2023-10-09T05:48:42;16.60;99.20
37974;DHT22;23796;51.458;7.000;2023-10-09T05:51:08;16.60;99.20
37974;DHT22;23796;51.458;7.000;2023-10-09T05:53:59;16.60;99.20
37974;DHT22;23796;51.458;7.000;2023-10-09T05:56:37;16.60;99.10
37974;DHT22;23796;51.458;7.000;2023-10-09T05:59:23;16.60;99.00
37974;DHT22;23796;51.458;7.000;2023-10-09T06:02:07;16.60;99.00
37974;DHT22;23796;51.458;7.000;2023-10-09T06:04:53;16.60;99.10
37974;DHT22;23796;51.458;7.000;2023-10-09T06:07:22;16.70;99.00
37974;DHT22;23796;51.458;7.000;2023-10-09T06:10:13;16.70;99.00
37974;DHT22;23796;51.458;7.000;2023-10-09T06:12:58;16.70;99.10
37974;DHT22;23796;51.458;7.000;2023-10-09T06:15:31;16.70;99.00
37974;DHT22;23796;51.458;7.000;2023-10-09T06:18:08;16.70;99.10
37974;DHT22;23796;51.458;7.000;2023-10-09T06:20:58;16.70;99.20
37974;DHT22;23796;51.458;7.000;2023-10-09T06:23:55;16.70;99.10
37974;DHT22;23796;51.458;7.000;2023-10-09T06:26:42;16.70;99.00
37974;DHT22;23796;51.458;7.000;2023-10-09T06:29:29;16.80;98.90
37974;DHT22;23796;51.458;7.000;2023-10-09T06:32:08;16.80;98.90
37974;DHT22;23796;51.458;7.000;2023-10-09T06:35:02;16.80;98.90
37974;DHT22;23796;51.458;7.000;2023-10-09T06:38:03;16.80;98.80
37974;DHT22;23796;51.458;7.000;2023-10-09T06:40:36;16.80;98.80
37974;DHT22;23796;51.458;7.000;2023-10-09T06:43:02;16.80;98.80
37974;DHT22;23796;51.458;7.000;2023-10-09T06:45:35;16.80;98.80
37974;DHT22;23796;51.458;7.000;2023-10-09T06:48:26;16.90;98.80
37974;DHT22;23796;51.458;7.000;2023-10-09T06:51:04;16.90;98.70
37974;DHT22;23796;51.458;7.000;2023-10-09T06:53:48;16.90;98.60
37974;DHT22;23796;51.458;7.000;2023-10-09T06:56:27;16.90;98.50
37974;DHT22;23796;51.458;7.000;2023-10-09T06:59:04;17.00;98.40
37974;DHT22;23796;51.458;7.000;2023-10-09T07:01:39;17.00;98.40
37974;DHT22;23796;51.458;7.000;2023-10-09T07:04:08;17.00;98.40
37974;DHT22;23796;51.458;7.000;2023-10-09T07:06:55;17.10;98.50
37974;DHT22;23796;51.458;7.000;2023-10-09T07:09:23;17.10;98.40
37974;DHT22;23796;51.458;7.000;2023-10-09T07:11:49;17.10;98.40
37974;DHT22;23796;51.458;7.000;2023-10-09T07:14:16;17.10;98.30
37974;DHT22;23796;51.458;7.000;2023-10-09T07:16:58;17.20;98.20
37974;DHT22;23796;51.458;7.000;2023-10-09T07:19:29;17.20;98.10
37974;DHT22;23796;51.458;7.000;2023-10-09T07:22:08;17.20;98.10
37974;DHT22;23796;51.458;7.000;2023-10-09T07:24:55;17.10;98.20
37974;DHT22;23796;51.458;7.000;2023-10-09T07:27:40;17.20;98.10
37974;DHT22;23796;51.458;7.000;2023-10-09T07:30:18;17.20;98.00
37974;DHT22;23796;51.458;7.000;2023-10-09T07:32:57;17.20;97.90
37974;DHT22;23796;51.458;7.000;2023-10-09T07:35:47;17.20;97.60
37974;DHT22;23796;51.458;7.000;2023-10-09T07:40:49;17.30;97.50
37974;DHT22;23796;51.458;7.000;2023-10-09T07:43:44;17.40;97.20
37974;DHT22;23796;51.458;7.000;2023-10-09T07:46:22;17.40;97.00
37974;DHT22;23796;51.458;7.000;2023-10-09T07:49:17;17.50;96.60
37974;DHT22;23796;51.458;7.000;2023-10-09T07:51:51;17.60;96.70
37974;DHT22;23796;51.458;7.000;2023-10-09T07:54:18;17.60;96.40
37974;DHT22;23796;51.458;7.000;2023-10-09T07:56:58;17.60;96.50
37974;DHT22;23796;51.458;7.000;2023-10-09T07:59:35;17.40;97.20
37974;DHT22;23796;51.458;7.000;2023-10-09T08:02:07;17.30;97.40
37974;DHT22;23796;51.458;7.000;2023-10-09T08:04:39;17.20;97.90
37974;DHT22;23796;51.458;7.000;2023-10-09T08:07:08;17.30;97.90
37974;DHT22;23796;51.458;7.000;2023-10-09T08:09:35;17.50;97.30
37974;DHT22;23796;51.458;7.000;2023-10-09T08:12:14;17.70;96.80
37974;DHT22;23796;51.458;7.000;2023-10-09T08:15:07;17.70;96.50
37974;DHT22;23796;51.458;7.000;2023-10-09T08:17:45;17.70;96.40
37974;DHT22;23796;51.458;7.000;2023-10-09T08:20:25;17.80;96.40
37974;DHT22;23796;51.458;7.000;2023-10-09T08:22:54;17.90;96.20
37974;DHT22;23796;51.458;7.000;2023-10-09T08:25:24;17.90;96.00
37974;DHT22;23796;51.458;7.000;2023-10-09T08:27:57;17.90;95.70
37974;DHT22;23796;51.458;7.000;2023-10-09T08:30:25;17.90;95.90
37974;DHT22;23796;51.458;7.000;2023-10-09T08:32:51;18.00;95.80
37974;DHT22;23796;51.458;7.000;2023-10-09T08:35:32;17.90;96.00
37974;DHT22;23796;51.458;7.000;2023-10-09T08:38:14;17.90;96.30
37974;DHT22;23796;51.458;7.000;2023-10-09T08:40:43;17.90;96.50
37974;DHT22;23796;51.458;7.000;2023-10-09T08:43:15;17.90;96.60
37974;DHT22;23796;51.458;7.000;2023-10-09T08:45:53;17.80;96.80
37974;DHT22;23796;51.458;7.000;2023-10-09T08:48:20;17.90;97.00
37974;DHT22;23796;51.458;7.000;2023-10-09T08:50:52;17.90;97.10
37974;DHT22;23796;51.458;7.000;2023-10-09T08:53:24;18.00;97.30
37974;DHT22;23796;51.458;7.000;2023-10-09T08:55:50;17.90;97.00
37974;DHT22;23796;51.458;7.000;2023-10-09T08:58:17;18.00;97.30
37974;DHT22;23796;51.458;7.000;2023-10-09T09:00:47;18.00;97.20
37974;DHT22;23796;51.458;7.000;2023-10-09T09:03:16;18.00;96.90
37974;DHT22;23796;51.458;7.000;2023-10-09T09:05:48;18.10;96.90
37974;DHT22;23796;51.458;7.000;2023-10-09T09:08:28;18.20;96.70
37974;DHT22;23796;51.458;7.000;2023-10-09T09:16:32;18.50;95.30
37974;DHT22;23796;51.458;7.000;2023-10-09T09:19:03;18.60;95.20
37974;DHT22;23796;51.458;7.000;2023-10-09T09:21:34;18.70;94.90
37974;DHT22;23796;51.458;7.000;2023-10-09T09:24:07;18.70;94.60
37974;DHT22;23796;51.458;7.000;2023-10-09T09:26:52;18.50;95.60
37974;DHT22;23796;51.458;7.000;2023-10-09T09:32:11;18.90;94.60
37974;DHT22;23796;51.458;7.000;2023-10-09T09:34:46;19.10;93.60
37974;DHT22;23796;51.458;7.000;2023-10-09T09:37:22;19.00;93.50
37974;DHT22;23796;51.458;7.000;2023-10-09T09:39:55;19.20;93.40
37974;DHT22;23796;51.458;7.000;2023-10-09T09:42:24;19.30;92.60
37974;DHT22;23796;51.458;7.000;2023-10-09T09:44:51;19.20;93.20
37974;DHT22;23796;51.458;7.000;2023-10-09T09:47:17;19.30;92.70
37974;DHT22;23796;51.458;7.000;2023-10-09T09:50:06;19.20;93.20
37974;DHT22;23796;51.458;7.000;2023-10-09T09:52:50;19.30;92.70
37974;DHT22;23796;51.458;7.000;2023-10-09T09:55:19;19.40;92.40
37974;DHT22;23796;51.458;7.000;2023-10-09T09:57:50;19.50;92.10
37974;DHT22;23796;51.458;7.000;2023-10-09T10:00:21;19.60;91.80
37974;DHT22;23796;51.458;7.000;2023-10-09T10:03:35;19.40;91.30
37974;DHT22;23796;51.458;7.000;2023-10-09T10:06:04;19.30;91.80
37974;DHT22;23796;51.458;7.000;2023-10-09T10:08:35;19.50;91.60
37974;DHT22;23796;51.458;7.000;2023-10-09T10:11:07;19.80;90.50
37974;DHT22;23796;51.458;7.000;2023-10-09T10:13:57;19.80;90.00
37974;DHT22;23796;51.458;7.000;2023-10-09T10:16:27;19.70;90.60
37974;DHT22;23796;51.458;7.000;2023-10-09T10:19:04;19.80;90.80
37974;DHT22;23796;51.458;7.000;2023-10-09T10:21:40;19.90;90.00
37974;DHT22;23796;51.458;7.000;2023-10-09T10:27:17;19.90;89.90
37974;DHT22;23796;51.458;7.000;2023-10-09T10:35:22;19.80;90.60
37974;DHT22;23796;51.458;7.000;2023-10-09T10:41:14;19.70;89.80
37974;DHT22;23796;51.458;7.000;2023-10-09T10:43:44;19.60;90.20
37974;DHT22;23796;51.458;7.000;2023-10-09T10:46:15;19.60;90.60
37974;DHT22;23796;51.458;7.000;2023-10-09T10:49:01;19.60;90.60
37974;DHT22;23796;51.458;7.000;2023-10-09T10:51:47;19.70;90.70
37974;DHT22;23796;51.458;7.000;2023-10-09T10:54:26;20.00;89.20
37974;DHT22;23796;51.458;7.000;2023-10-09T10:57:29;19.80;90.00
37974;DHT22;23796;51.458;7.000;2023-10-09T10:59:56;19.80;89.40
37974;DHT22;23796;51.458;7.000;2023-10-09T11:02:43;19.70;89.20
37974;DHT22;23796;51.458;7.000;2023-10-09T11:05:09;19.60;89.70
37974;DHT22;23796;51.458;7.000;2023-10-09T11:07:49;19.80;89.90
37974;DHT22;23796;51.458;7.000;2023-10-09T11:10:22;20.00;89.20
37974;DHT22;23796;51.458;7.000;2023-10-09T11:12:58;19.80;89.10
37974;DHT22;23796;51.458;7.000;2023-10-09T11:15:35;19.70;89.70
37974;DHT22;23796;51.458;7.000;2023-10-09T11:18:26;19.50;90.00
37974;DHT22;23796;51.458;7.000;2023-10-09T11:20:56;19.40;90.50
37974;DHT22;23796;51.458;7.000;2023-10-09T11:23:43;19.50;90.80
37974;DHT22;23796;51.458;7.000;2023-10-09T11:26:18;19.60;90.50
37974;DHT22;23796;51.458;7.000;2023-10-09T11:29:05;19.70;90.30
37974;DHT22;23796;51.458;7.000;2023-10-09T11:31:39;19.70;90.20
37974;DHT22;23796;51.458;7.000;2023-10-09T11:34:17;19.80;89.80
37974;DHT22;23796;51.458;7.000;2023-10-09T11:37:03;19.90;89.80
37974;DHT22;23796;51.458;7.000;2023-10-09T11:39:37;20.00;89.30
37974;DHT22;23796;51.458;7.000;2023-10-09T11:42:18;20.00;89.70
37974;DHT22;23796;51.458;7.000;2023-10-09T11:45:04;19.90;89.60
37974;DHT22;23796;51.458;7.000;2023-10-09T11:47:54;19.70;89.70
37974;DHT22;23796;51.458;7.000;2023-10-09T11:53:43;19.90;89.60
37974;DHT22;23796;51.458;7.000;2023-10-09T11:56:13;20.10;89.10
37974;DHT22;23796;51.458;7.000;2023-10-09T11:58:42;20.30;88.20
37974;DHT22;23796;51.458;7.000;2023-10-09T12:01:12;20.20;88.70
37974;DHT22;23796;51.458;7.000;2023-10-09T12:03:49;20.30;88.20
37974;DHT22;23796;51.458;7.000;2023-10-09T12:06:19;20.20;88.90
37974;DHT22;23796;51.458;7.000;2023-10-09T12:08:50;20.20;88.70
37974;DHT22;23796;51.458;7.000;2023-10-09T12:11:16;20.30;88.30
37974;DHT22;23796;51.458;7.000;2023-10-09T12:13:51;20.40;88.50
37974;DHT22;23796;51.458;7.000;2023-10-09T12:16:22;20.60;87.90
37974;DHT22;23796;51.458;7.000;2023-10-09T12:18:47;20.80;87.10
37974;DHT22;23796;51.458;7.000;2023-10-09T12:21:18;20.70;86.80
37974;DHT22;23796;51.458;7.000;2023-10-09T12:23:44;20.60;86.90
37974;DHT22;23796;51.458;7.000;2023-10-09T12:26:13;20.60;86.80
37974;DHT22;23796;51.458;7.000;2023-10-09T12:28:44;20.50;87.20
37974;DHT22;23796;51.458;7.000;2023-10-09T12:31:15;20.40;87.10
37974;DHT22;23796;51.458;7.000;2023-10-09T12:33:42;20.30;88.00
37974;DHT22;23796;51.458;7.000;2023-10-09T12:36:14;20.40;88.00
37974;DHT22;23796;51.458;7.000;2023-10-09T12:38:47;20.30;87.70
37974;DHT22;23796;51.458;7.000;2023-10-09T12:41:17;20.20;88.20
37974;DHT22;23796;51.458;7.000;2023-10-09T12:43:54;20.10;88.70
37974;DHT22;23796;51.458;7.000;2023-10-09T12:46:20;20.00;88.90
37974;DHT22;23796;51.458;7.000;2023-10-09T12:48:51;20.10;88.90
37974;DHT22;23796;51.458;7.000;2023-10-09T12:51:19;20.20;89.00
37974;DHT22;23796;51.458;7.000;2023-10-09T12:53:46;20.40;88.20
37974;DHT22;23796;51.458;7.000;2023-10-09T12:56:16;20.40;88.00
37974;DHT22;23796;51.458;7.000;2023-10-09T12:58:44;20.40;88.20
37974;DHT22;23796;51.458;7.000;2023-10-09T13:01:19;20.40;88.30
37974;DHT22;23796;51.458;7.000;2023-10-09T13:03:50;20.30;88.00
37974;DHT22;23796;51.458;7.000;2023-10-09T13:06:18;20.30;88.70
37974;DHT22;23796;51.458;7.000;2023-10-09T13:08:49;20.50;88.30
37974;DHT22;23796;51.458;7.000;2023-10-09T13:11:14;20.60;87.90
37974;DHT22;23796;51.458;7.000;2023-10-09T13:13:44;20.80;87.30
37974;DHT22;23796;51.458;7.000;2023-10-09T13:16:16;20.90;86.20
37974;DHT22;23796;51.458;7.000;2023-10-09T13:18:52;20.80;86.80
37974;DHT22;23796;51.458;7.000;2023-10-09T13:23:51;21.10;86.00
37974;DHT22;23796;51.458;7.000;2023-10-09T13:26:20;21.00;86.10
37974;DHT22;23796;51.458;7.000;2023-10-09T13:28:58;21.00;86.50
37974;DHT22;23796;51.458;7.000;2023-10-09T13:31:25;21.10;86.40
37974;DHT22;23796;51.458;7.000;2023-10-09T13:33:55;21.20;85.80
37974;DHT22;23796;51.458;7.000;2023-10-09T13:36:26;21.50;85.20
37974;DHT22;23796;51.458;7.000;2023-10-09T13:38:56;21.40;84.80
37974;DHT22;23796;51.458;7.000;2023-10-09T13:41:23;21.10;86.00
37974;DHT22;23796;51.458;7.000;2023-10-09T13:43:54;21.10;86.10
37974;DHT22;23796;51.458;7.000;2023-10-09T13:46:19;21.20;85.80
37974;DHT22;23796;51.458;7.000;2023-10-09T13:48:45;21.10;85.40
37974;DHT22;23796;51.458;7.000;2023-10-09T13:51:12;21.10;85.60
37974;DHT22;23796;51.458;7.000;2023-10-09T13:53:51;20.90;86.30
37974;DHT22;23796;51.458;7.000;2023-10-09T13:56:19;20.60;86.80
37974;DHT22;23796;51.458;7.000;2023-10-09T13:58:50;20.50;87.20
37974;DHT22;23796;51.458;7.000;2023-10-09T14:01:19;20.40;88.00
37974;DHT22;23796;51.458;7.000;2023-10-09T14:03:58;20.40;88.00
37974;DHT22;23796;51.458;7.000;2023-10-09T14:06:24;20.40;88.20
37974;DHT22;23796;51.458;7.000;2023-10-09T14:09:00;20.60;87.90
37974;DHT22;23796;51.458;7.000;2023-10-09T14:11:38;20.60;88.00
37974;DHT22;23796;51.458;7.000;2023-10-09T14:14:05;20.50;87.90
37974;DHT22;23796;51.458;7.000;2023-10-09T14:16:37;20.40;88.00
37974;DHT22;23796;51.458;7.000;2023-10-09T14:19:08;20.40;88.50
37974;DHT22;23796;51.458;7.000;2023-10-09T14:21:38;20.30;88.50
37974;DHT22;23796;51.458;7.000;2023-10-09T14:24:07;20.30;88.90
37974;DHT22;23796;51.458;7.000;2023-10-09T14:26:43;20.30;89.00
37974;DHT22;23796;51.458;7.000;2023-10-09T14:29:11;20.30;89.00
37974;DHT22;23796;51.458;7.000;2023-10-09T14:31:43;20.40;88.90
37974;DHT22;23796;51.458;7.000;2023-10-09T14:34:09;20.40;89.00
37974;DHT22;23796;51.458;7.000;2023-10-09T14:36:35;20.50;88.50
37974;DHT22;23796;51.458;7.000;2023-10-09T14:39:01;20.40;88.50
37974;DHT22;23796;51.458;7.000;2023-10-09T14:41:27;20.40;88.70
37974;DHT22;23796;51.458;7.000;2023-10-09T14:43:54;20.30;89.20
37974;DHT22;23796;51.458;7.000;2023-10-09T14:46:22;20.20;89.40
37974;DHT22;23796;51.458;7.000;2023-10-09T14:48:55;20.20;89.40
37974;DHT22;23796;51.458;7.000;2023-10-09T14:51:21;20.30;89.20
37974;DHT22;23796;51.458;7.000;2023-10-09T14:53:55;20.30;89.40
37974;DHT22;23796;51.458;7.000;2023-10-09T14:56:29;20.30;89.40
37974;DHT22;23796;51.458;7.000;2023-10-09T14:58:57;20.50;89.10
37974;DHT22;23796;51.458;7.000;2023-10-09T15:01:27;20.60;88.60
37974;DHT22;23796;51.458;7.000;2023-10-09T15:04:00;20.70;88.40
37974;DHT22;23796;51.458;7.000;2023-10-09T15:06:29;20.80;88.10
37974;DHT22;23796;51.458;7.000;2023-10-09T15:08:59;20.80;87.90
37974;DHT22;23796;51.458;7.000;2023-10-09T15:11:33;20.80;87.70
37974;DHT22;23796;51.458;7.000;2023-10-09T15:14:04;20.70;88.20
37974;DHT22;23796;51.458;7.000;2023-10-09T15:16:31;20.80;88.20
37974;DHT22;23796;51.458;7.000;2023-10-09T15:18:59;20.80;88.20
37974;DHT22;23796;51.458;7.000;2023-10-09T15:21:28;20.70;88.10
37974;DHT22;23796;51.458;7.000;2023-10-09T15:23:58;20.60;88.50
37974;DHT22;23796;51.458;7.000;2023-10-09T15:26:27;20.50;88.80
37974;DHT22;23796;51.458;7.000;2023-10-09T15:29:01;20.60;88.90
37974;DHT22;23796;51.458;7.000;2023-10-09T15:31:29;20.50;88.80
37974;DHT22;23796;51.458;7.000;2023-10-09T15:33:56;20.50;89.20
37974;DHT22;23796;51.458;7.000;2023-10-09T15:36:23;20.60;89.10
37974;DHT22;23796;51.458;7.000;2023-10-09T15:38:51;20.60;89.00
37974;DHT22;23796;51.458;7.000;2023-10-09T15:41:17;20.60;89.00
37974;DHT22;23796;51.458;7.000;2023-10-09T15:43:43;20.70;89.00
37974;DHT22;23796;51.458;7.000;2023-10-09T15:46:12;20.70;89.00
37974;DHT22;23796;51.458;7.000;2023-10-09T15:48:40;20.70;89.10
37974;DHT22;23796;51.458;7.000;2023-10-09T15:51:12;20.60;89.10
37974;DHT22;23796;51.458;7.000;2023-10-09T15:53:44;20.60;89.20
37974;DHT22;23796;51.458;7.000;2023-10-09T15:56:10;20.60;89.50
37974;DHT22;23796;51.458;7.000;2023-10-09T15:58:41;20.50;89.90
37974;DHT22;23796;51.458;7.000;2023-10-09T16:01:13;20.50;89.90
37974;DHT22;23796;51.458;7.000;2023-10-09T16:03:43;20.60;89.80
37974;DHT22;23796;51.458;7.000;2023-10-09T16:06:10;20.60;89.70
37974;DHT22;23796;51.458;7.000;2023-10-09T16:08:40;20.60;89.80
37974;DHT22;23796;51.458;7.000;2023-10-09T16:11:07;20.60;89.80
37974;DHT22;23796;51.458;7.000;2023-10-09T16:13:33;20.60;89.70
37974;DHT22;23796;51.458;7.000;2023-10-09T16:15:59;20.60;89.80
37974;DHT22;23796;51.458;7.000;2023-10-09T16:18:26;20.60;89.90
37974;DHT22;23796;51.458;7.000;2023-10-09T16:20:55;20.50;90.00
37974;DHT22;23796;51.458;7.000;2023-10-09T16:23:21;20.40;90.40
37974;DHT22;23796;51.458;7.000;2023-10-09T16:25:47;20.40;90.60
37974;DHT22;23796;51.458;7.000;2023-10-09T16:28:15;20.20;90.90
37974;DHT22;23796;51.458;7.000;2023-10-09T16:30:41;20.10;91.50
37974;DHT22;23796;51.458;7.000;2023-10-09T16:33:09;20.10;91.50
37974;DHT22;23796;51.458;7.000;2023-10-09T16:35:37;20.10;91.50
37974;DHT22;23796;51.458;7.000;2023-10-09T16:38:03;20.10;91.50
37974;DHT22;23796;51.458;7.000;2023-10-09T16:40:37;20.10;91.60